Aérodrome :
LOGIN :

S'inscrire | Disclaimer

   EN    FR    IT 

 










Légende :    VFR   VFR Marginal   IFR   IFR Intensif   IFR Très Intensif
Visi : 
Plafond : 
>= 8 km
>= 3000ft
5 à 8 km
1000 à 3000 ft
1500m à 5 km
500 à 1000 ft
800 à 1500m
200 à 500 ft
< 800m
< 200 ft
Symboles :   Orages  Brouillard  Fortes neiges  Fortes précipitations  Vent > 20 kt
SIGMETs :   Divers  Orages  Givrage  Turbulence  Onde Orograph.  Cendres Volcan.







- Altitude de l'aérodrome : 13 ft
- Code IATA : CEQ
- Voir les cartes d'approche


LFMD - Cannes Mandelieu

DERNIER METAR :
  • 211530Z AUTO 16005KT 130V190 CAVOK 20/13 Q1018 NOSIG

METARs EXPIRÉS :
  • 211500Z AUTO 17007KT 130V190 CAVOK 21/14 Q1018 NOSIG
  • 211430Z AUTO 17007KT 120V190 CAVOK 21/14 Q1018 NOSIG
  • 211400Z AUTO 14006KT 110V190 CAVOK 21/14 Q1018 NOSIG
  • 211330Z AUTO 15005KT 090V200 CAVOK 21/14 Q1019 NOSIG
  • 211300Z AUTO 16006KT 120V210 CAVOK 21/14 Q1019 NOSIG

TAF TAF LFMD
Valide du 21 à 15h jusqu'au 22 à 15h UTC


211400Z 2115/2215 14006KT CAVOK
BECMG 2119/2121 34005KT
PROB30
TEMPO 2204/2210 BKN010
BECMG 2210/2211 16005KT
ATIS : +33 4 93 48 73 23
Pas de NOTAMs connus pour ce terrain.



MET'MAP, la Météo Aéronautique d'un coup d'oeil ! - Copyright ORBIFLY Décembre 2007 - Disclaimer

ORBIFLY MET'MAP TEAM :

Programmation & Développement : Alexandra Zaïnal
Conception & Développement : Baudouin d'Aumeries
Co-Programmation & Développement : Marc-Olivier Méhu
Soutien technique & logistique : Manuel Goepfert

Contact : metmap@orbifly.com




SOURCES & CREDITS :

   NOAA